Pekín, Beijing

4:22 AM CST en Julio 24, 2014 (GMT +0800)
Beijing Capital (ZBAA) Alt 115 ft | 40.07 °N, 116.59 °E | Change Station

Current weather conditions updated 22 minutes ago

Clear
Despejado
75 ° F
Sensación térmica 75 ° F
N
2
Viento Variable Viento desde ENE

Hoy se prevé una temperatura muy similar a la de ayer.

Hoy
Alta -- | Baja -- ° F
--% Posibilidad de precipitaciones
Ayer
Alta -- | Baja -- ° F
Precip. -- pul
5:04 AM 7:35 PM
Creciente menguante, 9% visible
Presión 29.62 pul
Visibilidad 5.0 Millas
Nubes
Punto de rocío 68 ° F
Humedad 78%
Precipitaciones 0.00 pul
Espesor de la nieve No disponible.
UV No disponible.
Polen No disponible.
Calidad del aire No disponible.
Flu Activity No disponible.
METAR ZBAA 232000Z 06001MPS 8000 NSC 24/20 Q1003 NOSIG

More Conditions Fewer Conditions

Presión 29.62 pul
Visibilidad 5.0 Millas
Nubes
Punto de rocío 68 ° F
Humedad 78%
Precipitaciones 0.00 pul
Espesor de la nieve No disponible.
UV No disponible.
Polen No disponible.
Calidad del aire No disponible.
Flu Activity No disponible.
METAR ZBAA 232000Z 06001MPS 8000 NSC 24/20 Q1003 NOSIG

More Conditions Fewer Conditions

10-Day Weather Forecast

Almanac

Astronomía

Jul. 24, 2014 Salida Puesta
Hora real 5:04 AM CST 7:35 PM CST
Crepúsculo civil 4:33 AM CST 8:06 PM CST
Crepúsculo náutico 3:54 AM CST 8:45 PM CST
Crepúsculo astronómico 3:10 AM CST 9:28 PM CST
Luna 2:43 AM CST (7/24) 5:24 PM CST (7/24)
Horas de luz 15h 33m
Horas de luz
14h 31m
Tomorrow will be 1m 44s shorter.
Creciente menguante, 9% of the Moon is Illuminated
Jul 23
Creciente menguante
Jul 26
Nueva
Ago 3
Cuarto creciente
Ago 10
Luna llena
Ago 17
Cuarto menguante

Extremos de ayer

Máximos del país Bajas del país

Community

WunderPhotos

Upload Photos

1,736,758 ¡fotos cargadas!

Nearby

Calidad del aire

Not available.

Grosos de nieve

Not available.

Actividad de terremotos

Ciudad Distance Mag. Tiempo y dato
No hay informes recientes de la actividad sísmica.
Magnitud mínima muestra es 2,5.

Temperaturas de aguas costeras

Lugar Temperatura
Sin partes meteorológicos de las estaciones

Estaciones meteorológicas cercanas

No hay estaciones meteorológicas personales en esta zona.